Airfield :
LOGIN :

Register | Disclaimer

   EN    FR    IT 

 










Legend :    VFR   Marginal VFR   IFR   Intensive IFR   Very Intensive IFR
Visi :
Ceiling :
>= 8 km
>= 3000ft
5 to 8 km
1000 to 3000 ft
1500m to 5 km
500 to 1000 ft
800 to 1500m
200 to 500 ft
< 800m
< 200 ft
Symbols :   Thunderstorms  Fog  Heavy snow  Heavy precipitations  Wind > 20 kt
SIGMETs :     Misc.  Thunderstorms  Icing  Turbulence  Mountain Waves  Volcanic Ashes






- Airport Elevation : 7 ft
- IATA code : VCE


LIPZ - Marco Polo Int. Venezia

CURRENT METAR :
  • 280650Z VRB01KT 4000 BR BKN030 05/03 Q1020 NOSIG

EXPIRED METARs :
  • 280620Z 26004KT 210V010 4000 BR BKN027 04/03 Q1020 NOSIG
  • 280550Z 02008KT 3800 BR BKN027 04/03 Q1020 NOSIG
  • 280520Z 35006KT 3500 BR BKN026 04/03 Q1020 NOSIG
  • 280450Z 36004KT 3500 BR BKN026 04/03 Q1020 NOSIG
  • 280420Z 35003KT 3500 BR BKN027 04/03 Q1020 NOSIG

TAF TAF LIPZ
Valid from the 28 at 06:00 until the 29 at 12:00 UTC


280500Z 2806/2912 VRB05KT 3000 BR BKN015
TEMPO 2806/2808 0800 FG BKN002
BECMG 2808/2810 6000
TEMPO 2900/2908 2000 BR



MET'MAP, your aeronautical weather chart ! - Copyright ORBIFLY December 2007 - Disclaimer

ORBIFLY MET'MAP TEAM :

Programming & Development : Alexandra Zaïnal
Concept & original design : Baudouin d'Aumeries
Assistance for programming : Marc-Olivier Méhu
Technical & hardware support : Manuel Goepfert

Contact : metmap@orbifly.com




SOURCES & CREDITS :

   NOAA